<?xml version="1.0" encoding="UTF-8" standalone="no" ?>
<gpx xmlns="http://www.topografix.com/GPX/1/1" xmlns:xsi="http://www.w3.org/2001/XMLSchema-instance" xsi:schemaLocation="http://www.topografix.com/GPX/1/1 http://www.topografix.com/GPX/1/1/gpx.xsd" version="1.1" creator="VisuGPX - https://www.visugpx.com">
  <metadata>
    <name>Festieux</name>
    <desc><![CDATA[BRIC - Belle Rencontre Inter Club
Le dimanche 3 avril 2022
Club organisateur : ARPAL]]></desc>
  </metadata>
  <trk>
    <name><![CDATA[après midi]]></name>
    <extensions>
      <line xmlns="http://www.topografix.com/GPX/gpx_style/0/2">
        <color>ff8000</color>
        <width>4</width>
      </line>
    </extensions>
    <trkseg>
      <trkpt lat="49.52033" lon="3.75418">
        <ele>110</ele>
      </trkpt>
      <trkpt lat="49.52062" lon="3.7561">
        <ele>171.73</ele>
        <time>2022-04-03T11:48:37Z</time>
      </trkpt>
      <trkpt lat="49.52049" lon="3.75681">
        <ele>173.17</ele>
        <time>2022-04-03T11:49:19Z</time>
      </trkpt>
      <trkpt lat="49.52017" lon="3.75746">
        <ele>173.17</ele>
        <time>2022-04-03T11:50:00Z</time>
      </trkpt>
      <trkpt lat="49.52006" lon="3.75789">
        <ele>109.8</ele>
        <time>2022-04-03T11:50:31Z</time>
      </trkpt>
      <trkpt lat="49.51997" lon="3.75832">
        <ele>110.1</ele>
      </trkpt>
      <trkpt lat="49.52023" lon="3.75882">
        <ele>173.17</ele>
        <time>2022-04-03T11:51:20Z</time>
      </trkpt>
      <trkpt lat="49.52049" lon="3.75948">
        <ele>175.58</ele>
        <time>2022-04-03T11:52:03Z</time>
      </trkpt>
      <trkpt lat="49.52095" lon="3.76027">
        <ele>177.98</ele>
        <time>2022-04-03T11:52:58Z</time>
      </trkpt>
      <trkpt lat="49.52104" lon="3.76125">
        <ele>179.9</ele>
        <time>2022-04-03T11:53:44Z</time>
      </trkpt>
      <trkpt lat="49.52066" lon="3.76169">
        <ele>183.75</ele>
        <time>2022-04-03T11:54:28Z</time>
      </trkpt>
      <trkpt lat="49.5202" lon="3.76173">
        <ele>190.48</ele>
        <time>2022-04-03T11:55:24Z</time>
      </trkpt>
      <trkpt lat="49.5195" lon="3.7622">
        <ele>198.17</ele>
        <time>2022-04-03T11:56:32Z</time>
      </trkpt>
      <trkpt lat="49.51882" lon="3.76284">
        <ele>201.53</ele>
        <time>2022-04-03T11:57:40Z</time>
      </trkpt>
      <trkpt lat="49.51841" lon="3.76295">
        <ele>204.42</ele>
        <time>2022-04-03T11:58:20Z</time>
      </trkpt>
      <trkpt lat="49.51816" lon="3.763">
        <ele>212.11</ele>
        <time>2022-04-03T11:59:10Z</time>
      </trkpt>
      <trkpt lat="49.51773" lon="3.76301">
        <ele>220.76</ele>
        <time>2022-04-03T12:00:08Z</time>
      </trkpt>
      <trkpt lat="49.51705" lon="3.76337">
        <ele>228.45</ele>
        <time>2022-04-03T12:01:10Z</time>
      </trkpt>
      <trkpt lat="49.5163" lon="3.7639">
        <ele>235.18</ele>
        <time>2022-04-03T12:02:22Z</time>
      </trkpt>
      <trkpt lat="49.51576" lon="3.76406">
        <ele>242.39</ele>
        <time>2022-04-03T12:03:17Z</time>
      </trkpt>
      <trkpt lat="49.51528" lon="3.76399">
        <ele>248.64</ele>
        <time>2022-04-03T12:04:04Z</time>
      </trkpt>
      <trkpt lat="49.51526" lon="3.76424">
        <ele>251.04</ele>
        <time>2022-04-03T12:05:06Z</time>
      </trkpt>
      <trkpt lat="49.51563" lon="3.76481">
        <ele>250.56</ele>
        <time>2022-04-03T12:06:11Z</time>
      </trkpt>
      <trkpt lat="49.51586" lon="3.76524">
        <ele>252.96</ele>
        <time>2022-04-03T12:06:47Z</time>
      </trkpt>
      <trkpt lat="49.51615" lon="3.76575">
        <ele>253.93</ele>
        <time>2022-04-03T12:07:23Z</time>
      </trkpt>
      <trkpt lat="49.51626" lon="3.76608">
        <ele>253.93</ele>
        <time>2022-04-03T12:07:50Z</time>
      </trkpt>
      <trkpt lat="49.51643" lon="3.76643">
        <ele>253.93</ele>
        <time>2022-04-03T12:08:15Z</time>
      </trkpt>
      <trkpt lat="49.51647" lon="3.76707">
        <ele>255.37</ele>
        <time>2022-04-03T12:08:48Z</time>
      </trkpt>
      <trkpt lat="49.51622" lon="3.76799">
        <ele>188.2</ele>
        <time>2022-04-03T12:09:44Z</time>
      </trkpt>
      <trkpt lat="49.51567" lon="3.76891">
        <ele>188.4</ele>
        <time>2022-04-03T12:10:24Z</time>
      </trkpt>
      <trkpt lat="49.51512" lon="3.76977">
        <ele>189.3</ele>
        <time>2022-04-03T12:12:15Z</time>
      </trkpt>
      <trkpt lat="49.51511" lon="3.77063">
        <ele>192.5</ele>
        <time>2022-04-03T12:13:02Z</time>
      </trkpt>
      <trkpt lat="49.51514" lon="3.77134">
        <ele>194.8</ele>
        <time>2022-04-03T12:13:34Z</time>
      </trkpt>
      <trkpt lat="49.51574" lon="3.77228">
        <ele>191.9</ele>
        <time>2022-04-03T12:14:20Z</time>
      </trkpt>
      <trkpt lat="49.51627" lon="3.77316">
        <ele>190.3</ele>
        <time>2022-04-03T12:14:56Z</time>
      </trkpt>
      <trkpt lat="49.5168" lon="3.77423">
        <ele>190.3</ele>
        <time>2022-04-03T12:15:37Z</time>
      </trkpt>
      <trkpt lat="49.51713" lon="3.77509">
        <ele>189.9</ele>
      </trkpt>
      <trkpt lat="49.51721" lon="3.77559">
        <ele>191.1</ele>
        <time>2022-04-03T12:18:19Z</time>
      </trkpt>
      <trkpt lat="49.51759" lon="3.77663">
        <ele>257.29</ele>
        <time>2022-04-03T12:19:02Z</time>
      </trkpt>
      <trkpt lat="49.51768" lon="3.7773">
        <ele>257.29</ele>
        <time>2022-04-03T12:19:39Z</time>
      </trkpt>
      <trkpt lat="49.51797" lon="3.7782">
        <ele>257.77</ele>
        <time>2022-04-03T12:20:29Z</time>
      </trkpt>
      <trkpt lat="49.51825" lon="3.77937">
        <ele>254.89</ele>
        <time>2022-04-03T12:21:34Z</time>
      </trkpt>
      <trkpt lat="49.51774" lon="3.7802">
        <ele>256.33</ele>
        <time>2022-04-03T12:22:38Z</time>
      </trkpt>
      <trkpt lat="49.51747" lon="3.78057">
        <ele>257.29</ele>
        <time>2022-04-03T12:23:08Z</time>
      </trkpt>
      <trkpt lat="49.51684" lon="3.78136">
        <ele>192</ele>
        <time>2022-04-03T12:24:51Z</time>
      </trkpt>
      <trkpt lat="49.51664" lon="3.78118">
        <ele>259.69</ele>
        <time>2022-04-03T12:27:06Z</time>
      </trkpt>
      <trkpt lat="49.51599" lon="3.78117">
        <ele>260.17</ele>
        <time>2022-04-03T12:28:05Z</time>
      </trkpt>
      <trkpt lat="49.51564" lon="3.78123">
        <ele>261.14</ele>
        <time>2022-04-03T12:28:36Z</time>
      </trkpt>
      <trkpt lat="49.51508" lon="3.78163">
        <ele>261.14</ele>
        <time>2022-04-03T12:29:29Z</time>
      </trkpt>
      <trkpt lat="49.51472" lon="3.7823">
        <ele>257.29</ele>
        <time>2022-04-03T12:30:11Z</time>
      </trkpt>
      <trkpt lat="49.51466" lon="3.7829">
        <ele>182.8</ele>
      </trkpt>
      <trkpt lat="49.51511" lon="3.78389">
        <ele>182.1</ele>
        <time>2022-04-03T12:31:55Z</time>
      </trkpt>
      <trkpt lat="49.51533" lon="3.78468">
        <ele>181.3</ele>
        <time>2022-04-03T12:33:24Z</time>
      </trkpt>
      <trkpt lat="49.51546" lon="3.78549">
        <ele>247.68</ele>
        <time>2022-04-03T12:34:34Z</time>
      </trkpt>
      <trkpt lat="49.51569" lon="3.78622">
        <ele>239.51</ele>
        <time>2022-04-03T12:35:24Z</time>
      </trkpt>
      <trkpt lat="49.51617" lon="3.78661">
        <ele>231.33</ele>
        <time>2022-04-03T12:36:08Z</time>
      </trkpt>
      <trkpt lat="49.51665" lon="3.78702">
        <ele>222.68</ele>
        <time>2022-04-03T12:37:07Z</time>
      </trkpt>
      <trkpt lat="49.51718" lon="3.78731">
        <ele>215.47</ele>
        <time>2022-04-03T12:37:57Z</time>
      </trkpt>
      <trkpt lat="49.51765" lon="3.78737">
        <ele>140.9</ele>
      </trkpt>
      <trkpt lat="49.51781" lon="3.78643">
        <ele>201.53</ele>
        <time>2022-04-03T12:40:05Z</time>
      </trkpt>
      <trkpt lat="49.51773" lon="3.78597">
        <ele>138.5</ele>
      </trkpt>
      <trkpt lat="49.51805" lon="3.78543">
        <ele>203.46</ele>
        <time>2022-04-03T12:41:03Z</time>
      </trkpt>
      <trkpt lat="49.51845" lon="3.78449">
        <ele>201.53</ele>
        <time>2022-04-03T12:42:04Z</time>
      </trkpt>
      <trkpt lat="49.51881" lon="3.78366">
        <ele>205.38</ele>
        <time>2022-04-03T12:43:04Z</time>
      </trkpt>
      <trkpt lat="49.51914" lon="3.7837">
        <ele>207.3</ele>
        <time>2022-04-03T12:43:55Z</time>
      </trkpt>
      <trkpt lat="49.51941" lon="3.78444">
        <ele>205.86</ele>
        <time>2022-04-03T12:46:21Z</time>
      </trkpt>
      <trkpt lat="49.51962" lon="3.78498">
        <ele>203.46</ele>
        <time>2022-04-03T12:46:59Z</time>
      </trkpt>
      <trkpt lat="49.52014" lon="3.785">
        <ele>206.34</ele>
        <time>2022-04-03T12:47:53Z</time>
      </trkpt>
      <trkpt lat="49.52058" lon="3.78506">
        <ele>207.78</ele>
        <time>2022-04-03T12:48:39Z</time>
      </trkpt>
      <trkpt lat="49.52095" lon="3.78505">
        <ele>207.78</ele>
        <time>2022-04-03T12:49:23Z</time>
      </trkpt>
      <trkpt lat="49.52121" lon="3.78437">
        <ele>215.47</ele>
        <time>2022-04-03T12:50:38Z</time>
      </trkpt>
      <trkpt lat="49.52142" lon="3.78393">
        <ele>224.61</ele>
        <time>2022-04-03T12:51:39Z</time>
      </trkpt>
      <trkpt lat="49.5217" lon="3.78353">
        <ele>232.78</ele>
        <time>2022-04-03T12:52:25Z</time>
      </trkpt>
      <trkpt lat="49.5221" lon="3.78315">
        <ele>250.08</ele>
        <time>2022-04-03T12:55:50Z</time>
      </trkpt>
      <trkpt lat="49.52274" lon="3.7836">
        <ele>251.04</ele>
        <time>2022-04-03T12:57:13Z</time>
      </trkpt>
      <trkpt lat="49.52309" lon="3.78414">
        <ele>252.48</ele>
        <time>2022-04-03T13:00:01Z</time>
      </trkpt>
      <trkpt lat="49.52369" lon="3.78491">
        <ele>255.37</ele>
        <time>2022-04-03T13:01:12Z</time>
      </trkpt>
      <trkpt lat="49.52435" lon="3.78569">
        <ele>258.73</ele>
        <time>2022-04-03T13:02:29Z</time>
      </trkpt>
      <trkpt lat="49.52506" lon="3.78625">
        <ele>260.17</ele>
        <time>2022-04-03T13:03:38Z</time>
      </trkpt>
      <trkpt lat="49.52565" lon="3.78655">
        <ele>256.33</ele>
        <time>2022-04-03T13:04:54Z</time>
      </trkpt>
      <trkpt lat="49.52554" lon="3.78565">
        <ele>255.85</ele>
        <time>2022-04-03T13:06:00Z</time>
      </trkpt>
      <trkpt lat="49.52554" lon="3.78454">
        <ele>258.25</ele>
        <time>2022-04-03T13:07:01Z</time>
      </trkpt>
      <trkpt lat="49.52561" lon="3.78353">
        <ele>260.65</ele>
        <time>2022-04-03T13:07:56Z</time>
      </trkpt>
      <trkpt lat="49.52571" lon="3.78283">
        <ele>262.58</ele>
        <time>2022-04-03T13:08:40Z</time>
      </trkpt>
      <trkpt lat="49.52587" lon="3.78239">
        <ele>261.62</ele>
        <time>2022-04-03T13:09:11Z</time>
      </trkpt>
      <trkpt lat="49.52628" lon="3.78156">
        <ele>261.62</ele>
        <time>2022-04-03T13:10:09Z</time>
      </trkpt>
      <trkpt lat="49.52667" lon="3.78086">
        <ele>260.17</ele>
        <time>2022-04-03T13:10:58Z</time>
      </trkpt>
      <trkpt lat="49.52677" lon="3.78028">
        <ele>260.17</ele>
        <time>2022-04-03T13:11:36Z</time>
      </trkpt>
      <trkpt lat="49.52672" lon="3.77973">
        <ele>260.17</ele>
        <time>2022-04-03T13:12:11Z</time>
      </trkpt>
      <trkpt lat="49.52662" lon="3.77844">
        <ele>262.58</ele>
        <time>2022-04-03T13:13:20Z</time>
      </trkpt>
      <trkpt lat="49.52655" lon="3.77765">
        <ele>261.14</ele>
        <time>2022-04-03T13:14:02Z</time>
      </trkpt>
      <trkpt lat="49.5265" lon="3.77669">
        <ele>259.69</ele>
        <time>2022-04-03T13:14:57Z</time>
      </trkpt>
      <trkpt lat="49.52643" lon="3.77587">
        <ele>258.73</ele>
        <time>2022-04-03T13:15:45Z</time>
      </trkpt>
      <trkpt lat="49.52613" lon="3.77488">
        <ele>259.69</ele>
        <time>2022-04-03T13:16:41Z</time>
      </trkpt>
      <trkpt lat="49.5258" lon="3.77413">
        <ele>259.21</ele>
        <time>2022-04-03T13:17:33Z</time>
      </trkpt>
      <trkpt lat="49.52632" lon="3.77318">
        <ele>260.17</ele>
        <time>2022-04-03T13:18:40Z</time>
      </trkpt>
      <trkpt lat="49.52696" lon="3.77225">
        <ele>262.1</ele>
        <time>2022-04-03T13:19:53Z</time>
      </trkpt>
      <trkpt lat="49.52742" lon="3.77163">
        <ele>260.65</ele>
        <time>2022-04-03T13:20:41Z</time>
      </trkpt>
      <trkpt lat="49.52785" lon="3.77224">
        <ele>261.14</ele>
        <time>2022-04-03T13:21:26Z</time>
      </trkpt>
      <trkpt lat="49.52809" lon="3.77269">
        <ele>262.58</ele>
        <time>2022-04-03T13:22:05Z</time>
      </trkpt>
      <trkpt lat="49.52849" lon="3.77307">
        <ele>262.58</ele>
        <time>2022-04-03T13:22:37Z</time>
      </trkpt>
      <trkpt lat="49.52882" lon="3.77364">
        <ele>263.54</ele>
        <time>2022-04-03T13:23:26Z</time>
      </trkpt>
      <trkpt lat="49.52929" lon="3.7742">
        <ele>264.02</ele>
        <time>2022-04-03T13:24:14Z</time>
      </trkpt>
      <trkpt lat="49.52967" lon="3.77476">
        <ele>264.02</ele>
        <time>2022-04-03T13:25:00Z</time>
      </trkpt>
      <trkpt lat="49.52998" lon="3.77531">
        <ele>264.02</ele>
        <time>2022-04-03T13:25:41Z</time>
      </trkpt>
      <trkpt lat="49.53031" lon="3.77591">
        <ele>263.06</ele>
        <time>2022-04-03T13:26:20Z</time>
      </trkpt>
      <trkpt lat="49.53081" lon="3.77674">
        <ele>262.58</ele>
        <time>2022-04-03T13:27:21Z</time>
      </trkpt>
      <trkpt lat="49.53096" lon="3.77701">
        <ele>263.06</ele>
        <time>2022-04-03T13:27:55Z</time>
      </trkpt>
      <trkpt lat="49.5315" lon="3.77759">
        <ele>264.02</ele>
        <time>2022-04-03T13:28:48Z</time>
      </trkpt>
      <trkpt lat="49.53204" lon="3.77812">
        <ele>264.98</ele>
        <time>2022-04-03T13:29:43Z</time>
      </trkpt>
      <trkpt lat="49.53257" lon="3.77863">
        <ele>264.98</ele>
        <time>2022-04-03T13:30:32Z</time>
      </trkpt>
      <trkpt lat="49.5329" lon="3.77888">
        <ele>265.46</ele>
        <time>2022-04-03T13:31:06Z</time>
      </trkpt>
      <trkpt lat="49.53336" lon="3.77941">
        <ele>266.42</ele>
        <time>2022-04-03T13:31:55Z</time>
      </trkpt>
      <trkpt lat="49.53363" lon="3.77977">
        <ele>267.38</ele>
        <time>2022-04-03T13:32:25Z</time>
      </trkpt>
      <trkpt lat="49.53394" lon="3.78008">
        <ele>267.86</ele>
        <time>2022-04-03T13:33:12Z</time>
      </trkpt>
      <trkpt lat="49.53387" lon="3.78017">
        <ele>267.86</ele>
        <time>2022-04-03T13:34:47Z</time>
      </trkpt>
      <trkpt lat="49.53382" lon="3.78022">
        <ele>267.86</ele>
        <time>2022-04-03T13:36:09Z</time>
      </trkpt>
      <trkpt lat="49.53389" lon="3.78016">
        <ele>268.35</ele>
        <time>2022-04-03T13:39:06Z</time>
      </trkpt>
      <trkpt lat="49.53407" lon="3.77992">
        <ele>267.38</ele>
        <time>2022-04-03T13:39:36Z</time>
      </trkpt>
      <trkpt lat="49.53447" lon="3.77897">
        <ele>266.42</ele>
        <time>2022-04-03T13:40:37Z</time>
      </trkpt>
      <trkpt lat="49.53443" lon="3.77864">
        <ele>264.98</ele>
        <time>2022-04-03T13:41:01Z</time>
      </trkpt>
      <trkpt lat="49.53488" lon="3.77812">
        <ele>266.42</ele>
        <time>2022-04-03T13:41:47Z</time>
      </trkpt>
      <trkpt lat="49.53502" lon="3.77754">
        <ele>266.9</ele>
        <time>2022-04-03T13:42:28Z</time>
      </trkpt>
      <trkpt lat="49.53524" lon="3.77692">
        <ele>266.42</ele>
        <time>2022-04-03T13:43:10Z</time>
      </trkpt>
      <trkpt lat="49.53533" lon="3.77626">
        <ele>265.94</ele>
        <time>2022-04-03T13:43:50Z</time>
      </trkpt>
      <trkpt lat="49.53551" lon="3.77508">
        <ele>265.94</ele>
        <time>2022-04-03T13:44:53Z</time>
      </trkpt>
      <trkpt lat="49.53571" lon="3.77432">
        <ele>266.42</ele>
        <time>2022-04-03T13:45:45Z</time>
      </trkpt>
      <trkpt lat="49.53589" lon="3.77325">
        <ele>191.6</ele>
        <time>2022-04-03T13:46:43Z</time>
      </trkpt>
      <trkpt lat="49.53625" lon="3.77187">
        <ele>190.7</ele>
        <time>2022-04-03T13:47:26Z</time>
      </trkpt>
      <trkpt lat="49.53555" lon="3.77266">
        <ele>250.08</ele>
        <time>2022-04-03T13:48:11Z</time>
      </trkpt>
      <trkpt lat="49.53518" lon="3.7731">
        <ele>241.91</ele>
        <time>2022-04-03T13:49:02Z</time>
      </trkpt>
      <trkpt lat="49.53482" lon="3.77344">
        <ele>233.74</ele>
        <time>2022-04-03T13:50:10Z</time>
      </trkpt>
      <trkpt lat="49.53438" lon="3.77345">
        <ele>224.61</ele>
        <time>2022-04-03T13:51:15Z</time>
      </trkpt>
      <trkpt lat="49.53392" lon="3.77365">
        <ele>217.4</ele>
        <time>2022-04-03T13:52:06Z</time>
      </trkpt>
      <trkpt lat="49.53337" lon="3.7736">
        <ele>209.7</ele>
        <time>2022-04-03T13:53:09Z</time>
      </trkpt>
      <trkpt lat="49.533" lon="3.77345">
        <ele>205.86</ele>
        <time>2022-04-03T13:53:42Z</time>
      </trkpt>
      <trkpt lat="49.53289" lon="3.77283">
        <ele>201.53</ele>
        <time>2022-04-03T13:54:29Z</time>
      </trkpt>
      <trkpt lat="49.53268" lon="3.77206">
        <ele>198.65</ele>
        <time>2022-04-03T13:55:19Z</time>
      </trkpt>
      <trkpt lat="49.53255" lon="3.77163">
        <ele>196.73</ele>
        <time>2022-04-03T13:55:45Z</time>
      </trkpt>
      <trkpt lat="49.53247" lon="3.771">
        <ele>192.88</ele>
        <time>2022-04-03T13:56:27Z</time>
      </trkpt>
      <trkpt lat="49.53253" lon="3.77005">
        <ele>189.52</ele>
        <time>2022-04-03T13:57:24Z</time>
      </trkpt>
      <trkpt lat="49.53252" lon="3.76934">
        <ele>188.08</ele>
        <time>2022-04-03T13:58:15Z</time>
      </trkpt>
      <trkpt lat="49.5326" lon="3.76828">
        <ele>185.67</ele>
        <time>2022-04-03T13:59:17Z</time>
      </trkpt>
      <trkpt lat="49.53264" lon="3.76735">
        <ele>183.27</ele>
        <time>2022-04-03T14:00:06Z</time>
      </trkpt>
      <trkpt lat="49.53243" lon="3.76646">
        <ele>181.35</ele>
        <time>2022-04-03T14:01:02Z</time>
      </trkpt>
      <trkpt lat="49.53229" lon="3.76539">
        <ele>180.87</ele>
        <time>2022-04-03T14:01:59Z</time>
      </trkpt>
      <trkpt lat="49.53202" lon="3.76447">
        <ele>178.94</ele>
        <time>2022-04-03T14:02:55Z</time>
      </trkpt>
      <trkpt lat="49.53187" lon="3.76382">
        <ele>178.46</ele>
        <time>2022-04-03T14:03:46Z</time>
      </trkpt>
      <trkpt lat="49.53178" lon="3.76301">
        <ele>177.02</ele>
        <time>2022-04-03T14:04:36Z</time>
      </trkpt>
      <trkpt lat="49.5317" lon="3.76232">
        <ele>176.06</ele>
        <time>2022-04-03T14:05:08Z</time>
      </trkpt>
      <trkpt lat="49.53156" lon="3.7614">
        <ele>174.14</ele>
        <time>2022-04-03T14:05:52Z</time>
      </trkpt>
      <trkpt lat="49.53134" lon="3.76078">
        <ele>173.66</ele>
        <time>2022-04-03T14:06:25Z</time>
      </trkpt>
      <trkpt lat="49.53084" lon="3.76125">
        <ele>174.62</ele>
        <time>2022-04-03T14:07:15Z</time>
      </trkpt>
      <trkpt lat="49.53075" lon="3.7614">
        <ele>175.1</ele>
        <time>2022-04-03T14:08:20Z</time>
      </trkpt>
      <trkpt lat="49.53054" lon="3.76168">
        <ele>174.62</ele>
        <time>2022-04-03T14:11:34Z</time>
      </trkpt>
      <trkpt lat="49.53006" lon="3.76209">
        <ele>175.1</ele>
        <time>2022-04-03T14:12:14Z</time>
      </trkpt>
      <trkpt lat="49.52938" lon="3.76176">
        <ele>174.62</ele>
        <time>2022-04-03T14:13:03Z</time>
      </trkpt>
      <trkpt lat="49.52879" lon="3.761">
        <ele>175.58</ele>
        <time>2022-04-03T14:14:05Z</time>
      </trkpt>
      <trkpt lat="49.52823" lon="3.76113">
        <ele>176.06</ele>
        <time>2022-04-03T14:14:51Z</time>
      </trkpt>
      <trkpt lat="49.52786" lon="3.76141">
        <ele>176.54</ele>
        <time>2022-04-03T14:15:22Z</time>
      </trkpt>
      <trkpt lat="49.52741" lon="3.76171">
        <ele>176.54</ele>
        <time>2022-04-03T14:16:07Z</time>
      </trkpt>
      <trkpt lat="49.52666" lon="3.76172">
        <ele>177.98</ele>
        <time>2022-04-03T14:17:00Z</time>
      </trkpt>
      <trkpt lat="49.52623" lon="3.76156">
        <ele>178.46</ele>
        <time>2022-04-03T14:17:34Z</time>
      </trkpt>
      <trkpt lat="49.52572" lon="3.76145">
        <ele>178.46</ele>
        <time>2022-04-03T14:18:11Z</time>
      </trkpt>
      <trkpt lat="49.525" lon="3.76122">
        <ele>178.94</ele>
        <time>2022-04-03T14:19:05Z</time>
      </trkpt>
      <trkpt lat="49.52442" lon="3.7613">
        <ele>177.5</ele>
        <time>2022-04-03T14:19:51Z</time>
      </trkpt>
      <trkpt lat="49.52369" lon="3.76178">
        <ele>177.98</ele>
        <time>2022-04-03T14:20:48Z</time>
      </trkpt>
      <trkpt lat="49.52303" lon="3.76187">
        <ele>177.98</ele>
        <time>2022-04-03T14:21:36Z</time>
      </trkpt>
      <trkpt lat="49.5223" lon="3.76179">
        <ele>178.94</ele>
        <time>2022-04-03T14:22:33Z</time>
      </trkpt>
      <trkpt lat="49.52211" lon="3.76134">
        <ele>179.9</ele>
        <time>2022-04-03T14:23:13Z</time>
      </trkpt>
      <trkpt lat="49.52196" lon="3.76073">
        <ele>179.42</ele>
        <time>2022-04-03T14:23:51Z</time>
      </trkpt>
      <trkpt lat="49.52176" lon="3.76015">
        <ele>179.9</ele>
        <time>2022-04-03T14:24:25Z</time>
      </trkpt>
      <trkpt lat="49.52154" lon="3.75935">
        <ele>179.9</ele>
        <time>2022-04-03T14:25:05Z</time>
      </trkpt>
      <trkpt lat="49.52128" lon="3.75852">
        <ele>180.38</ele>
        <time>2022-04-03T14:25:54Z</time>
      </trkpt>
      <trkpt lat="49.52095" lon="3.75764">
        <ele>180.87</ele>
        <time>2022-04-03T14:26:46Z</time>
      </trkpt>
      <trkpt lat="49.52072" lon="3.75689">
        <ele>181.83</ele>
        <time>2022-04-03T14:27:28Z</time>
      </trkpt>
      <trkpt lat="49.52055" lon="3.75598">
        <ele>181.83</ele>
        <time>2022-04-03T14:28:15Z</time>
      </trkpt>
      <trkpt lat="49.52039" lon="3.75514">
        <ele>182.79</ele>
        <time>2022-04-03T14:28:57Z</time>
      </trkpt>
      <trkpt lat="49.52031" lon="3.75462">
        <ele>183.27</ele>
        <time>2022-04-03T14:29:21Z</time>
      </trkpt>
      <trkpt lat="49.52029" lon="3.75422">
        <ele>110</ele>
        <time>2022-04-03T14:39:23Z</time>
      </trkpt>
    </trkseg>
  </trk>
</gpx>